sensor_id;sensor_type;location;lat;lon;timestamp;pressure;altitude;pressure_sealevel;temperature;humidity
83448;BME280;73376;45.472;-73.568;2024-02-26T00:01:44;100941.78;;;0.74;42.29
83448;BME280;73376;45.472;-73.568;2024-02-26T00:04:11;100960.44;;;0.85;42.54
83448;BME280;73376;45.472;-73.568;2024-02-26T00:06:38;100950.84;;;0.73;42.60
83448;BME280;73376;45.472;-73.568;2024-02-26T00:09:08;100933.34;;;0.59;42.60
83448;BME280;73376;45.472;-73.568;2024-02-26T00:11:40;100950.31;;;0.60;42.67
83448;BME280;73376;45.472;-73.568;2024-02-26T00:14:05;100926.56;;;0.55;43.24
83448;BME280;73376;45.472;-73.568;2024-02-26T00:16:40;100939.44;;;0.61;43.56
83448;BME280;73376;45.472;-73.568;2024-02-26T00:19:07;100946.91;;;0.58;43.71
83448;BME280;73376;45.472;-73.568;2024-02-26T00:21:33;100904.69;;;0.31;43.95
83448;BME280;73376;45.472;-73.568;2024-02-26T00:23:59;100928.84;;;0.40;43.89
83448;BME280;73376;45.472;-73.568;2024-02-26T00:26:24;100915.47;;;0.31;44.17
83448;BME280;73376;45.472;-73.568;2024-02-26T00:28:51;100916.31;;;0.31;44.65
83448;BME280;73376;45.472;-73.568;2024-02-26T00:31:17;100934.78;;;0.44;44.89
83448;BME280;73376;45.472;-73.568;2024-02-26T00:33:43;100930.88;;;0.38;44.98
83448;BME280;73376;45.472;-73.568;2024-02-26T00:36:09;100941.16;;;0.43;45.34
83448;BME280;73376;45.472;-73.568;2024-02-26T00:38:35;100948.25;;;0.44;45.03
83448;BME280;73376;45.472;-73.568;2024-02-26T00:41:01;100930.03;;;0.38;45.03
83448;BME280;73376;45.472;-73.568;2024-02-26T00:43:27;100938.09;;;0.38;45.13
83448;BME280;73376;45.472;-73.568;2024-02-26T00:45:53;100930.16;;;0.36;45.08
83448;BME280;73376;45.472;-73.568;2024-02-26T00:48:19;100903.72;;;0.22;45.28
83448;BME280;73376;45.472;-73.568;2024-02-26T00:50:45;100906.81;;;0.27;45.33
83448;BME280;73376;45.472;-73.568;2024-02-26T00:53:11;100904.84;;;0.29;45.71
83448;BME280;73376;45.472;-73.568;2024-02-26T00:55:37;100898.59;;;0.38;45.49
83448;BME280;73376;45.472;-73.568;2024-02-26T00:58:03;100900.28;;;0.39;45.46
83448;BME280;73376;45.472;-73.568;2024-02-26T01:00:29;100904.22;;;0.45;45.23
83448;BME280;73376;45.472;-73.568;2024-02-26T01:02:55;100878.38;;;0.34;45.35
83448;BME280;73376;45.472;-73.568;2024-02-26T01:05:24;100906.19;;;0.53;44.95
83448;BME280;73376;45.472;-73.568;2024-02-26T01:07:50;100908.31;;;0.49;44.63
83448;BME280;73376;45.472;-73.568;2024-02-26T01:10:16;100905.19;;;0.54;44.52
83448;BME280;73376;45.472;-73.568;2024-02-26T01:12:42;100911.38;;;0.64;44.45
83448;BME280;73376;45.472;-73.568;2024-02-26T01:15:08;100913.94;;;0.65;44.30
83448;BME280;73376;45.472;-73.568;2024-02-26T01:17:35;100876.03;;;0.49;44.32
83448;BME280;73376;45.472;-73.568;2024-02-26T01:20:05;100890.31;;;0.59;44.17
83448;BME280;73376;45.472;-73.568;2024-02-26T01:22:34;100867.41;;;0.45;44.12
83448;BME280;73376;45.472;-73.568;2024-02-26T01:25:00;100896.22;;;0.63;44.10
83448;BME280;73376;45.472;-73.568;2024-02-26T01:27:26;100874.91;;;0.52;44.58
83448;BME280;73376;45.472;-73.568;2024-02-26T01:29:53;100895.53;;;0.61;44.96
83448;BME280;73376;45.472;-73.568;2024-02-26T01:32:21;100888.19;;;0.53;44.42
83448;BME280;73376;45.472;-73.568;2024-02-26T01:34:49;100882.13;;;0.51;44.81
83448;BME280;73376;45.472;-73.568;2024-02-26T01:37:15;100893.44;;;0.55;44.72
83448;BME280;73376;45.472;-73.568;2024-02-26T01:39:41;100899.13;;;0.52;44.72
83448;BME280;73376;45.472;-73.568;2024-02-26T01:42:07;100901.34;;;0.56;45.22
83448;BME280;73376;45.472;-73.568;2024-02-26T01:44:33;100899.50;;;0.57;44.90
83448;BME280;73376;45.472;-73.568;2024-02-26T01:47:00;100894.28;;;0.55;44.63
83448;BME280;73376;45.472;-73.568;2024-02-26T01:49:27;100888.34;;;0.52;45.25
83448;BME280;73376;45.472;-73.568;2024-02-26T01:51:57;100884.13;;;0.49;45.07
83448;BME280;73376;45.472;-73.568;2024-02-26T01:54:24;100873.84;;;0.35;45.22
83448;BME280;73376;45.472;-73.568;2024-02-26T01:56:51;100902.22;;;0.47;45.79
83448;BME280;73376;45.472;-73.568;2024-02-26T01:59:17;100885.28;;;0.37;45.84
83448;BME280;73376;45.472;-73.568;2024-02-26T02:01:44;100894.06;;;0.39;45.59
83448;BME280;73376;45.472;-73.568;2024-02-26T02:04:14;100878.63;;;0.41;45.48
83448;BME280;73376;45.472;-73.568;2024-02-26T02:06:41;100897.13;;;0.44;45.56
83448;BME280;73376;45.472;-73.568;2024-02-26T02:09:13;100887.25;;;0.44;45.71
83448;BME280;73376;45.472;-73.568;2024-02-26T02:11:41;100891.06;;;0.42;45.28
83448;BME280;73376;45.472;-73.568;2024-02-26T02:14:07;100892.63;;;0.44;45.56
83448;BME280;73376;45.472;-73.568;2024-02-26T02:16:33;100883.44;;;0.37;45.25
83448;BME280;73376;45.472;-73.568;2024-02-26T02:18:59;100891.34;;;0.49;45.17
83448;BME280;73376;45.472;-73.568;2024-02-26T02:21:25;100885.97;;;0.49;45.07
83448;BME280;73376;45.472;-73.568;2024-02-26T02:23:51;100894.56;;;0.52;44.93
83448;BME280;73376;45.472;-73.568;2024-02-26T02:26:20;100892.44;;;0.56;45.04
83448;BME280;73376;45.472;-73.568;2024-02-26T02:28:46;100875.03;;;0.50;45.35
83448;BME280;73376;45.472;-73.568;2024-02-26T02:31:13;100894.69;;;0.60;45.17
83448;BME280;73376;45.472;-73.568;2024-02-26T02:33:42;100893.13;;;0.58;45.19
83448;BME280;73376;45.472;-73.568;2024-02-26T02:36:09;100890.31;;;0.59;45.16
83448;BME280;73376;45.472;-73.568;2024-02-26T02:38:48;100908.09;;;0.70;45.11
83448;BME280;73376;45.472;-73.568;2024-02-26T02:41:17;100901.88;;;0.69;45.17
83448;BME280;73376;45.472;-73.568;2024-02-26T02:43:44;100890.59;;;0.56;45.20
83448;BME280;73376;45.472;-73.568;2024-02-26T02:46:10;100915.03;;;0.73;45.15
83448;BME280;73376;45.472;-73.568;2024-02-26T02:48:41;100922.81;;;0.76;45.08
83448;BME280;73376;45.472;-73.568;2024-02-26T02:51:07;100922.81;;;0.76;44.69
83448;BME280;73376;45.472;-73.568;2024-02-26T02:53:36;100906.38;;;0.79;44.57
83448;BME280;73376;45.472;-73.568;2024-02-26T02:56:02;100910.31;;;0.75;44.70
83448;BME280;73376;45.472;-73.568;2024-02-26T02:58:28;100893.50;;;0.73;44.63
83448;BME280;73376;45.472;-73.568;2024-02-26T03:00:54;100925.47;;;0.85;44.69
83448;BME280;73376;45.472;-73.568;2024-02-26T03:03:20;100909.19;;;0.77;44.64
83448;BME280;73376;45.472;-73.568;2024-02-26T03:05:49;100948.13;;;0.83;44.72
83448;BME280;73376;45.472;-73.568;2024-02-26T03:08:15;100914.75;;;0.76;44.61
83448;BME280;73376;45.472;-73.568;2024-02-26T03:10:41;100927.19;;;0.77;44.43
83448;BME280;73376;45.472;-73.568;2024-02-26T03:13:09;100929.28;;;0.83;44.50
83448;BME280;73376;45.472;-73.568;2024-02-26T03:15:35;100932.81;;;0.83;44.24
83448;BME280;73376;45.472;-73.568;2024-02-26T03:18:00;100927.75;;;0.80;44.21
83448;BME280;73376;45.472;-73.568;2024-02-26T03:20:29;100927.75;;;0.80;44.22
83448;BME280;73376;45.472;-73.568;2024-02-26T03:22:55;100934.13;;;0.79;44.29
83448;BME280;73376;45.472;-73.568;2024-02-26T03:25:21;100949.56;;;0.77;44.35
83448;BME280;73376;45.472;-73.568;2024-02-26T03:27:47;100932.22;;;0.62;44.33
83448;BME280;73376;45.472;-73.568;2024-02-26T03:30:13;100950.69;;;0.75;44.35
83448;BME280;73376;45.472;-73.568;2024-02-26T03:32:42;100965.16;;;0.74;44.59
83448;BME280;73376;45.472;-73.568;2024-02-26T03:35:08;100966.00;;;0.74;44.58
83448;BME280;73376;45.472;-73.568;2024-02-26T03:37:34;100984.25;;;0.80;44.50
83448;BME280;73376;45.472;-73.568;2024-02-26T03:40:00;100982.41;;;0.81;44.73
83448;BME280;73376;45.472;-73.568;2024-02-26T03:42:27;100969.28;;;0.68;44.89
83448;BME280;73376;45.472;-73.568;2024-02-26T03:44:52;101014.66;;;0.90;46.84
83448;BME280;73376;45.472;-73.568;2024-02-26T03:47:18;101001.09;;;0.92;54.52
83448;BME280;73376;45.472;-73.568;2024-02-26T03:49:47;101000.81;;;0.85;62.01
83448;BME280;73376;45.472;-73.568;2024-02-26T03:52:13;101007.44;;;0.91;66.47
83448;BME280;73376;45.472;-73.568;2024-02-26T03:54:39;101004.84;;;0.72;68.36
83448;BME280;73376;45.472;-73.568;2024-02-26T03:57:10;100993.38;;;0.60;69.45
83448;BME280;73376;45.472;-73.568;2024-02-26T03:59:36;100989.84;;;0.50;70.13
83448;BME280;73376;45.472;-73.568;2024-02-26T04:02:02;100956.34;;;0.34;69.85
83448;BME280;73376;45.472;-73.568;2024-02-26T04:04:28;100960.44;;;0.38;69.95
83448;BME280;73376;45.472;-73.568;2024-02-26T04:06:54;100962.28;;;0.38;68.82
83448;BME280;73376;45.472;-73.568;2024-02-26T04:09:22;100956.91;;;0.38;68.69
83448;BME280;73376;45.472;-73.568;2024-02-26T04:11:48;100951.66;;;0.36;67.79
83448;BME280;73376;45.472;-73.568;2024-02-26T04:14:15;100956.03;;;0.37;67.24
83448;BME280;73376;45.472;-73.568;2024-02-26T04:16:40;100923.38;;;0.22;66.88
83448;BME280;73376;45.472;-73.568;2024-02-26T04:19:06;100932.44;;;0.31;66.13
83448;BME280;73376;45.472;-73.568;2024-02-26T04:21:33;100923.09;;;0.35;65.60
83448;BME280;73376;45.472;-73.568;2024-02-26T04:23:59;100927.88;;;0.41;64.77
83448;BME280;73376;45.472;-73.568;2024-02-26T04:26:28;100904.53;;;0.42;64.63
83448;BME280;73376;45.472;-73.568;2024-02-26T04:28:54;100906.22;;;0.43;64.41
83448;BME280;73376;45.472;-73.568;2024-02-26T04:31:20;100902.69;;;0.42;64.35
83448;BME280;73376;45.472;-73.568;2024-02-26T04:33:46;100910.28;;;0.47;64.99
83448;BME280;73376;45.472;-73.568;2024-02-26T04:36:14;100885.25;;;0.46;65.59
83448;BME280;73376;45.472;-73.568;2024-02-26T04:38:42;100882.25;;;0.50;65.87
83448;BME280;73376;45.472;-73.568;2024-02-26T04:41:08;100869.66;;;0.50;65.41
83448;BME280;73376;45.472;-73.568;2024-02-26T04:43:34;100869.53;;;0.52;65.10
83448;BME280;73376;45.472;-73.568;2024-02-26T04:46:07;100857.34;;;0.47;65.05
83448;BME280;73376;45.472;-73.568;2024-02-26T04:48:34;100838.28;;;0.41;64.94
83448;BME280;73376;45.472;-73.568;2024-02-26T04:51:01;100847.59;;;0.46;65.43
83448;BME280;73376;45.472;-73.568;2024-02-26T04:53:27;100846.53;;;0.57;65.24
83448;BME280;73376;45.472;-73.568;2024-02-26T04:55:53;100849.22;;;0.57;65.14
83448;BME280;73376;45.472;-73.568;2024-02-26T04:58:21;100852.47;;;0.61;65.62
83448;BME280;73376;45.472;-73.568;2024-02-26T05:00:50;100832.84;;;0.51;65.29
83448;BME280;73376;45.472;-73.568;2024-02-26T05:03:16;100839.03;;;0.61;64.88
83448;BME280;73376;45.472;-73.568;2024-02-26T05:05:45;100830.94;;;0.61;64.10
83448;BME280;73376;45.472;-73.568;2024-02-26T05:08:11;100810.34;;;0.52;64.39
83448;BME280;73376;45.472;-73.568;2024-02-26T05:10:37;100797.78;;;0.42;64.17
83448;BME280;73376;45.472;-73.568;2024-02-26T05:13:07;100788.88;;;0.42;63.89
83448;BME280;73376;45.472;-73.568;2024-02-26T05:15:32;100788.63;;;0.35;63.55
83448;BME280;73376;45.472;-73.568;2024-02-26T05:17:58;100783.28;;;0.26;63.12
83448;BME280;73376;45.472;-73.568;2024-02-26T05:20:25;100824.59;;;0.34;63.12
83448;BME280;73376;45.472;-73.568;2024-02-26T05:22:51;100833.91;;;0.30;62.66
83448;BME280;73376;45.472;-73.568;2024-02-26T05:25:20;100829.00;;;0.26;62.43
83448;BME280;73376;45.472;-73.568;2024-02-26T05:27:46;100840.16;;;0.31;62.05
83448;BME280;73376;45.472;-73.568;2024-02-26T05:30:12;100829.53;;;0.29;61.95
83448;BME280;73376;45.472;-73.568;2024-02-26T05:32:38;100831.22;;;0.30;61.46
83448;BME280;73376;45.472;-73.568;2024-02-26T05:35:05;100831.38;;;0.29;60.97
83448;BME280;73376;45.472;-73.568;2024-02-26T05:37:31;100821.63;;;0.28;60.76
83448;BME280;73376;45.472;-73.568;2024-02-26T05:39:57;100797.88;;;0.23;60.49
83448;BME280;73376;45.472;-73.568;2024-02-26T05:42:23;100827.13;;;0.36;59.90
83448;BME280;73376;45.472;-73.568;2024-02-26T05:44:52;100831.94;;;0.32;59.50
83448;BME280;73376;45.472;-73.568;2024-02-26T05:47:18;100833.91;;;0.30;58.99
83448;BME280;73376;45.472;-73.568;2024-02-26T05:49:46;100820.63;;;0.29;58.89
83448;BME280;73376;45.472;-73.568;2024-02-26T05:52:13;100826.94;;;0.37;58.49
83448;BME280;73376;45.472;-73.568;2024-02-26T05:54:38;100810.81;;;0.37;58.54
83448;BME280;73376;45.472;-73.568;2024-02-26T05:57:04;100793.19;;;0.25;58.20
83448;BME280;73376;45.472;-73.568;2024-02-26T05:59:30;100806.22;;;0.20;58.33
83448;BME280;73376;45.472;-73.568;2024-02-26T06:01:56;100829.97;;;0.34;58.36
83448;BME280;73376;45.472;-73.568;2024-02-26T06:04:22;100810.75;;;0.19;59.05
83448;BME280;73376;45.472;-73.568;2024-02-26T06:06:50;100819.63;;;0.30;59.05
83448;BME280;73376;45.472;-73.568;2024-02-26T06:09:16;100822.31;;;0.30;59.27
83448;BME280;73376;45.472;-73.568;2024-02-26T06:11:42;100826.16;;;0.27;60.07
83448;BME280;73376;45.472;-73.568;2024-02-26T06:14:08;100817.59;;;0.14;60.18
83448;BME280;73376;45.472;-73.568;2024-02-26T06:16:35;100835.97;;;0.18;60.74
83448;BME280;73376;45.472;-73.568;2024-02-26T06:19:01;100819.00;;;0.08;60.65
83448;BME280;73376;45.472;-73.568;2024-02-26T06:21:30;100830.16;;;0.13;61.40
83448;BME280;73376;45.472;-73.568;2024-02-26T06:23:56;100835.41;;;0.15;61.17
83448;BME280;73376;45.472;-73.568;2024-02-26T06:26:21;100827.47;;;0.13;61.12
83448;BME280;73376;45.472;-73.568;2024-02-26T06:28:47;100801.78;;;0.01;61.38
83448;BME280;73376;45.472;-73.568;2024-02-26T06:31:13;100826.34;;;0.16;61.82
83448;BME280;73376;45.472;-73.568;2024-02-26T06:33:39;100767.06;;;-0.20;61.38
83448;BME280;73376;45.472;-73.568;2024-02-26T06:36:05;100786.38;;;-0.07;61.37
83448;BME280;73376;45.472;-73.568;2024-02-26T06:38:31;100787.78;;;-0.03;61.60
83448;BME280;73376;45.472;-73.568;2024-02-26T06:40:57;100795.56;;;0.01;61.22
83448;BME280;73376;45.472;-73.568;2024-02-26T06:43:26;100820.13;;;0.15;61.03
83448;BME280;73376;45.472;-73.568;2024-02-26T06:45:54;100817.25;;;0.17;61.07
83448;BME280;73376;45.472;-73.568;2024-02-26T06:48:22;100816.16;;;0.10;60.72
83448;BME280;73376;45.472;-73.568;2024-02-26T06:50:48;100824.78;;;0.13;60.96
83448;BME280;73376;45.472;-73.568;2024-02-26T06:53:14;100827.19;;;0.16;60.80
83448;BME280;73376;45.472;-73.568;2024-02-26T06:55:43;100817.13;;;0.18;60.40
83448;BME280;73376;45.472;-73.568;2024-02-26T06:58:09;100799.06;;;0.11;60.02
83448;BME280;73376;45.472;-73.568;2024-02-26T07:00:37;100804.41;;;0.20;59.78
83448;BME280;73376;45.472;-73.568;2024-02-26T07:03:03;100795.22;;;0.13;59.57
83448;BME280;73376;45.472;-73.568;2024-02-26T07:05:31;100798.88;;;0.22;58.93
83448;BME280;73376;45.472;-73.568;2024-02-26T07:08:00;100781.06;;;0.21;58.88
83448;BME280;73376;45.472;-73.568;2024-02-26T07:10:26;100800.69;;;0.31;58.39
83448;BME280;73376;45.472;-73.568;2024-02-26T07:12:52;100793.19;;;0.25;58.10
83448;BME280;73376;45.472;-73.568;2024-02-26T07:15:17;100817.66;;;0.32;58.13
83448;BME280;73376;45.472;-73.568;2024-02-26T07:17:44;100810.16;;;0.26;57.62
83448;BME280;73376;45.472;-73.568;2024-02-26T07:20:13;100812.41;;;0.30;58.03
83448;BME280;73376;45.472;-73.568;2024-02-26T07:22:42;100794.50;;;0.21;57.55
83448;BME280;73376;45.472;-73.568;2024-02-26T07:25:10;100793.03;;;0.27;57.36
83448;BME280;73376;45.472;-73.568;2024-02-26T07:27:41;100795.97;;;0.33;57.37
83448;BME280;73376;45.472;-73.568;2024-02-26T07:30:07;100779.31;;;0.30;57.26
83448;BME280;73376;45.472;-73.568;2024-02-26T07:32:36;100781.22;;;0.37;56.39
83448;BME280;73376;45.472;-73.568;2024-02-26T07:35:02;100764.56;;;0.34;56.27
83448;BME280;73376;45.472;-73.568;2024-02-26T07:37:28;100750.69;;;0.38;56.30
83448;BME280;73376;45.472;-73.568;2024-02-26T07:39:54;100757.16;;;0.45;55.88
83448;BME280;73376;45.472;-73.568;2024-02-26T07:42:20;100763.63;;;0.53;55.75
83448;BME280;73376;45.472;-73.568;2024-02-26T07:44:48;100746.09;;;0.49;55.70
83448;BME280;73376;45.472;-73.568;2024-02-26T07:47:14;100752.56;;;0.56;55.80
83448;BME280;73376;45.472;-73.568;2024-02-26T07:49:40;100753.94;;;0.60;55.63
83448;BME280;73376;45.472;-73.568;2024-02-26T07:52:06;100746.59;;;0.62;55.47
83448;BME280;73376;45.472;-73.568;2024-02-26T07:54:32;100721.19;;;0.46;55.49
83448;BME280;73376;45.472;-73.568;2024-02-26T07:56:58;100746.28;;;0.65;55.63
83448;BME280;73376;45.472;-73.568;2024-02-26T07:59:24;100737.81;;;0.60;55.41
83448;BME280;73376;45.472;-73.568;2024-02-26T08:01:51;100731.41;;;0.61;55.63
83448;BME280;73376;45.472;-73.568;2024-02-26T08:04:17;100743.97;;;0.70;55.42
83448;BME280;73376;45.472;-73.568;2024-02-26T08:06:43;100754.97;;;0.77;55.96
83448;BME280;73376;45.472;-73.568;2024-02-26T08:09:09;100756.06;;;0.84;55.68
83448;BME280;73376;45.472;-73.568;2024-02-26T08:11:35;100737.69;;;0.79;55.90
83448;BME280;73376;45.472;-73.568;2024-02-26T08:14:01;100737.22;;;0.84;55.42
83448;BME280;73376;45.472;-73.568;2024-02-26T08:16:27;100752.81;;;0.98;56.07
83448;BME280;73376;45.472;-73.568;2024-02-26T08:18:53;100759.75;;;1.01;55.55
83448;BME280;73376;45.472;-73.568;2024-02-26T08:21:21;100749.81;;;1.01;55.47
83448;BME280;73376;45.472;-73.568;2024-02-26T08:23:47;100742.06;;;0.98;55.12
83448;BME280;73376;45.472;-73.568;2024-02-26T08:26:13;100731.75;;;0.93;55.23
83448;BME280;73376;45.472;-73.568;2024-02-26T08:28:39;100758.97;;;1.08;54.96
83448;BME280;73376;45.472;-73.568;2024-02-26T08:31:05;100732.47;;;0.96;55.23
83448;BME280;73376;45.472;-73.568;2024-02-26T08:33:31;100762.53;;;1.09;54.86
83448;BME280;73376;45.472;-73.568;2024-02-26T08:35:59;100739.06;;;1.01;54.99
83448;BME280;73376;45.472;-73.568;2024-02-26T08:38:25;100744.97;;;1.05;54.63
83448;BME280;73376;45.472;-73.568;2024-02-26T08:40:53;100740.06;;;1.00;54.76
83448;BME280;73376;45.472;-73.568;2024-02-26T08:43:19;100742.06;;;0.98;54.42
83448;BME280;73376;45.472;-73.568;2024-02-26T08:45:45;100757.59;;;1.04;54.44
83448;BME280;73376;45.472;-73.568;2024-02-26T08:48:11;100758.97;;;1.08;54.25
83448;BME280;73376;45.472;-73.568;2024-02-26T08:50:37;100749.22;;;1.07;54.25
83448;BME280;73376;45.472;-73.568;2024-02-26T08:53:03;100746.53;;;1.07;53.88
83448;BME280;73376;45.472;-73.568;2024-02-26T08:55:29;100756.44;;;1.07;54.03
83448;BME280;73376;45.472;-73.568;2024-02-26T08:57:55;100752.06;;;1.06;53.79
83448;BME280;73376;45.472;-73.568;2024-02-26T09:00:21;100750.34;;;1.05;53.87
83448;BME280;73376;45.472;-73.568;2024-02-26T09:02:50;100758.97;;;1.08;53.68
83448;BME280;73376;45.472;-73.568;2024-02-26T09:05:16;100744.75;;;0.98;53.90
83448;BME280;73376;45.472;-73.568;2024-02-26T09:07:42;100734.63;;;0.92;53.55
83448;BME280;73376;45.472;-73.568;2024-02-26T09:10:08;100765.06;;;1.10;53.91
83448;BME280;73376;45.472;-73.568;2024-02-26T09:12:36;100763.50;;;1.08;53.75
83448;BME280;73376;45.472;-73.568;2024-02-26T09:15:03;100752.69;;;1.00;53.81
83448;BME280;73376;45.472;-73.568;2024-02-26T09:17:29;100755.06;;;1.03;53.70
83448;BME280;73376;45.472;-73.568;2024-02-26T09:19:55;100754.91;;;1.04;53.37
83448;BME280;73376;45.472;-73.568;2024-02-26T09:22:21;100768.59;;;1.11;53.51
83448;BME280;73376;45.472;-73.568;2024-02-26T09:24:48;100746.59;;;0.98;54.03
83448;BME280;73376;45.472;-73.568;2024-02-26T09:27:15;100745.38;;;0.92;53.66
83448;BME280;73376;45.472;-73.568;2024-02-26T09:29:42;100721.84;;;0.76;53.31
83448;BME280;73376;45.472;-73.568;2024-02-26T09:32:08;100765.38;;;1.07;53.27
83448;BME280;73376;45.472;-73.568;2024-02-26T09:34:34;100768.91;;;1.08;53.60
83448;BME280;73376;45.472;-73.568;2024-02-26T09:37:00;100762.59;;;0.99;53.08
83448;BME280;73376;45.472;-73.568;2024-02-26T09:39:26;100776.31;;;1.06;53.02
83448;BME280;73376;45.472;-73.568;2024-02-26T09:41:55;100779.00;;;1.06;53.56
83448;BME280;73376;45.472;-73.568;2024-02-26T09:44:22;100776.59;;;1.03;53.45
83448;BME280;73376;45.472;-73.568;2024-02-26T09:46:52;100772.38;;;1.00;53.36
83448;BME280;73376;45.472;-73.568;2024-02-26T09:49:23;100779.66;;;1.08;53.18
83448;BME280;73376;45.472;-73.568;2024-02-26T09:51:50;100780.97;;;1.04;53.26
83448;BME280;73376;45.472;-73.568;2024-02-26T09:54:19;100774.06;;;1.01;53.14
83448;BME280;73376;45.472;-73.568;2024-02-26T09:56:49;100788.75;;;1.07;53.16
83448;BME280;73376;45.472;-73.568;2024-02-26T09:59:17;100790.59;;;1.06;52.97
83448;BME280;73376;45.472;-73.568;2024-02-26T10:01:46;100744.75;;;0.80;53.15
83448;BME280;73376;45.472;-73.568;2024-02-26T10:04:14;100800.84;;;1.03;53.22
83448;BME280;73376;45.472;-73.568;2024-02-26T10:06:41;100788.28;;;0.93;53.05
83448;BME280;73376;45.472;-73.568;2024-02-26T10:09:10;100812.16;;;1.06;53.06
83448;BME280;73376;45.472;-73.568;2024-02-26T10:11:38;100809.16;;;1.09;53.02
83448;BME280;73376;45.472;-73.568;2024-02-26T10:14:08;100811.59;;;1.03;53.07
83448;BME280;73376;45.472;-73.568;2024-02-26T10:16:35;100807.19;;;1.02;53.16
83448;BME280;73376;45.472;-73.568;2024-02-26T10:19:01;100808.75;;;1.04;52.67
83448;BME280;73376;45.472;-73.568;2024-02-26T10:21:27;100811.44;;;1.04;52.89
83448;BME280;73376;45.472;-73.568;2024-02-26T10:23:53;100817.91;;;1.11;52.88
83448;BME280;73376;45.472;-73.568;2024-02-26T10:26:20;100820.22;;;1.06;53.05
83448;BME280;73376;45.472;-73.568;2024-02-26T10:28:46;100822.75;;;1.08;52.86
83448;BME280;73376;45.472;-73.568;2024-02-26T10:31:14;100813.28;;;1.04;53.17
83448;BME280;73376;45.472;-73.568;2024-02-26T10:33:41;100815.06;;;1.13;52.98
83448;BME280;73376;45.472;-73.568;2024-02-26T10:36:08;100806.06;;;1.04;53.02
83448;BME280;73376;45.472;-73.568;2024-02-26T10:38:37;100806.66;;;0.98;53.13
83448;BME280;73376;45.472;-73.568;2024-02-26T10:41:04;100813.47;;;1.02;53.31
83448;BME280;73376;45.472;-73.568;2024-02-26T10:43:31;100812.03;;;0.98;52.96
83448;BME280;73376;45.472;-73.568;2024-02-26T10:45:58;100848.91;;;1.15;53.05
83448;BME280;73376;45.472;-73.568;2024-02-26T10:48:27;100850.44;;;1.18;53.33
83448;BME280;73376;45.472;-73.568;2024-02-26T10:50:53;100845.06;;;1.18;53.20
83448;BME280;73376;45.472;-73.568;2024-02-26T10:53:21;100833.91;;;1.13;53.35
83448;BME280;73376;45.472;-73.568;2024-02-26T10:56:00;100832.75;;;1.15;53.52
83448;BME280;73376;45.472;-73.568;2024-02-26T10:58:28;100834.28;;;1.18;53.37
83448;BME280;73376;45.472;-73.568;2024-02-26T11:00:56;100839.69;;;1.18;53.63
83448;BME280;73376;45.472;-73.568;2024-02-26T11:03:23;100827.81;;;1.11;53.59
83448;BME280;73376;45.472;-73.568;2024-02-26T11:05:50;100839.06;;;1.24;53.74
83448;BME280;73376;45.472;-73.568;2024-02-26T11:08:18;100811.53;;;1.12;53.55
83448;BME280;73376;45.472;-73.568;2024-02-26T11:10:47;100832.00;;;1.23;53.50
83448;BME280;73376;45.472;-73.568;2024-02-26T11:13:18;100817.16;;;1.19;53.30
83448;BME280;73376;45.472;-73.568;2024-02-26T11:15:48;100836.78;;;1.29;53.66
83448;BME280;73376;45.472;-73.568;2024-02-26T11:18:16;100828.53;;;1.31;54.35
83448;BME280;73376;45.472;-73.568;2024-02-26T11:20:42;100789.84;;;0.96;54.05
83448;BME280;73376;45.472;-73.568;2024-02-26T11:23:09;100844.16;;;1.27;54.69
83448;BME280;73376;45.472;-73.568;2024-02-26T11:25:36;100859.16;;;1.30;54.55
83448;BME280;73376;45.472;-73.568;2024-02-26T11:28:16;100849.91;;;1.32;54.67
83448;BME280;73376;45.472;-73.568;2024-02-26T11:30:47;100856.16;;;1.33;55.08
83448;BME280;73376;45.472;-73.568;2024-02-26T11:33:15;100830.06;;;1.15;55.01
83448;BME280;73376;45.472;-73.568;2024-02-26T11:35:41;100850.56;;;1.26;55.43
83448;BME280;73376;45.472;-73.568;2024-02-26T11:38:07;100842.84;;;1.31;55.79
83448;BME280;73376;45.472;-73.568;2024-02-26T11:40:38;100822.13;;;1.32;55.86
83448;BME280;73376;45.472;-73.568;2024-02-26T11:43:06;100794.91;;;1.17;56.09
83448;BME280;73376;45.472;-73.568;2024-02-26T11:48:16;100805.03;;;1.05;57.33
83448;BME280;73376;45.472;-73.568;2024-02-26T11:50:51;100817.38;;;1.08;57.13
83448;BME280;73376;45.472;-73.568;2024-02-26T11:53:25;100819.38;;;1.06;57.54
83448;BME280;73376;45.472;-73.568;2024-02-26T11:56:30;100822.19;;;1.04;57.75
83448;BME280;73376;45.472;-73.568;2024-02-26T11:59:10;100827.06;;;1.01;58.12
83448;BME280;73376;45.472;-73.568;2024-02-26T12:01:44;100840.25;;;0.94;57.89
83448;BME280;73376;45.472;-73.568;2024-02-26T12:04:14;100872.59;;;1.12;57.85
83448;BME280;73376;45.472;-73.568;2024-02-26T12:06:56;100866.59;;;1.18;58.23
83448;BME280;73376;45.472;-73.568;2024-02-26T12:09:41;100872.53;;;1.22;58.54
83448;BME280;73376;45.472;-73.568;2024-02-26T12:12:08;100876.78;;;1.24;58.67
83448;BME280;73376;45.472;-73.568;2024-02-26T12:14:50;100870.53;;;1.24;58.82
83448;BME280;73376;45.472;-73.568;2024-02-26T12:17:23;100880.72;;;1.30;58.48
83448;BME280;73376;45.472;-73.568;2024-02-26T12:19:50;100887.31;;;1.35;58.77
83448;BME280;73376;45.472;-73.568;2024-02-26T12:22:17;100856.38;;;1.22;58.53
83448;BME280;73376;45.472;-73.568;2024-02-26T12:24:43;100876.25;;;1.38;58.51
83448;BME280;73376;45.472;-73.568;2024-02-26T12:27:09;100884.66;;;1.53;58.51
83448;BME280;73376;45.472;-73.568;2024-02-26T12:29:35;100892.63;;;1.63;58.71
83448;BME280;73376;45.472;-73.568;2024-02-26T12:32:03;100874.78;;;1.62;58.81
83448;BME280;73376;45.472;-73.568;2024-02-26T12:34:30;100882.63;;;1.73;58.17
83448;BME280;73376;45.472;-73.568;2024-02-26T12:36:56;100883.56;;;1.82;58.22
83448;BME280;73376;45.472;-73.568;2024-02-26T12:39:22;100876.47;;;1.81;57.91
83448;BME280;73376;45.472;-73.568;2024-02-26T12:41:49;100906.50;;;2.04;57.94
83448;BME280;73376;45.472;-73.568;2024-02-26T12:44:24;100898.00;;;1.99;57.74